createdAt,value
2022-10-11T00:00:18.085Z,14.89
2022-10-11T00:03:06.561Z,14.87
2022-10-11T00:05:54.785Z,14.88
2022-10-11T00:08:44.042Z,14.85
2022-10-11T00:11:32.210Z,14.80
2022-10-11T00:14:20.137Z,14.81
2022-10-11T00:17:08.589Z,14.82
2022-10-11T00:19:56.527Z,14.80
2022-10-11T00:22:44.896Z,14.76
2022-10-11T00:25:34.137Z,14.78
2022-10-11T00:28:22.075Z,14.78
2022-10-11T00:31:12.994Z,14.77
2022-10-11T00:34:00.918Z,14.75
2022-10-11T00:36:48.817Z,14.75
2022-10-11T00:39:36.840Z,14.73
2022-10-11T00:42:26.145Z,14.74
2022-10-11T00:45:59.549Z,14.71
2022-10-11T00:48:51.804Z,14.72
2022-10-11T00:51:46.311Z,14.72
2022-10-11T00:54:37.983Z,14.75
2022-10-11T00:57:30.893Z,14.75
2022-10-11T01:00:20.252Z,14.31
2022-10-11T01:03:08.208Z,14.79
2022-10-11T01:05:56.592Z,14.75
2022-10-11T01:08:45.281Z,14.59
2022-10-11T01:11:43.455Z,14.64
2022-10-11T01:14:55.175Z,14.74
2022-10-11T01:17:51.491Z,14.74
2022-10-11T01:20:51.221Z,14.75
2022-10-11T01:24:08.368Z,14.73
2022-10-11T01:27:30.354Z,14.74
2022-10-11T01:30:24.876Z,14.71
2022-10-11T01:33:25.026Z,14.73
2022-10-11T01:36:22.073Z,14.71
2022-10-11T01:39:15.549Z,14.70
2022-10-11T01:42:06.117Z,14.65
2022-10-11T01:44:56.102Z,14.64
2022-10-11T01:47:46.626Z,14.51
2022-10-11T01:50:40.227Z,14.53
2022-10-11T01:53:59.663Z,14.51
2022-10-11T01:57:02.615Z,14.35
2022-10-11T02:00:03.351Z,14.50
2022-10-11T02:03:14.149Z,14.45
2022-10-11T02:06:09.478Z,14.40
2022-10-11T02:09:08.067Z,14.36
2022-10-11T02:12:00.009Z,14.34
2022-10-11T02:14:51.748Z,14.32
2022-10-11T02:17:45.481Z,14.28
2022-10-11T02:20:35.592Z,14.09
2022-10-11T02:23:27.534Z,14.21
2022-10-11T02:26:15.813Z,14.24
2022-10-11T02:29:06.449Z,14.24
2022-10-11T02:31:56.617Z,14.25
2022-10-11T02:34:48.234Z,14.28
2022-10-11T02:37:44.359Z,14.26
2022-10-11T02:40:35.324Z,14.22
2022-10-11T02:43:30.824Z,14.25
2022-10-11T02:46:19.136Z,14.18
2022-10-11T02:49:09.340Z,14.07
2022-10-11T02:51:57.793Z,14.07
2022-10-11T02:54:47.124Z,14.06
2022-10-11T02:57:35.184Z,13.94
2022-10-11T03:00:23.144Z,13.79
2022-10-11T03:03:11.080Z,13.75
2022-10-11T03:05:59.735Z,13.75
2022-10-11T03:08:47.611Z,13.76
2022-10-11T03:11:36.869Z,13.68
2022-10-11T03:14:25.255Z,13.66
2022-10-11T03:17:34.984Z,13.60
2022-10-11T03:20:21.435Z,13.59
2022-10-11T03:23:09.465Z,13.52
2022-10-11T03:25:57.353Z,13.55
2022-10-11T03:28:46.653Z,13.51
2022-10-11T03:31:34.707Z,13.47
2022-10-11T03:34:22.604Z,13.30
2022-10-11T03:37:10.562Z,13.22
2022-10-11T03:39:58.458Z,13.13
2022-10-11T03:42:46.381Z,12.91
2022-10-11T03:45:35.650Z,12.88
2022-10-11T03:48:23.501Z,12.79
2022-10-11T03:51:13.034Z,12.62
2022-10-11T03:54:00.921Z,12.38
2022-10-11T03:56:48.800Z,12.37
2022-10-11T03:59:36.661Z,12.16
2022-10-11T04:02:25.983Z,12.09
2022-10-11T04:05:13.882Z,12.08
2022-10-11T04:08:01.802Z,12.02
2022-10-11T04:10:49.973Z,11.97
2022-10-11T04:13:37.898Z,11.96
2022-10-11T04:16:25.946Z,11.76
2022-10-11T04:19:15.212Z,11.74
2022-10-11T04:22:03.113Z,11.71
2022-10-11T04:24:51.042Z,11.73
2022-10-11T04:27:38.881Z,11.82
2022-10-11T04:30:26.792Z,11.75
2022-10-11T04:33:14.730Z,11.80
2022-10-11T04:36:04.611Z,11.77
2022-10-11T04:38:52.698Z,11.74
2022-10-11T04:41:40.665Z,11.63
2022-10-11T04:44:28.541Z,11.56
2022-10-11T04:47:16.736Z,11.57
2022-10-11T04:50:05.144Z,11.49
2022-10-11T04:52:54.381Z,11.39
2022-10-11T04:55:42.272Z,11.26
2022-10-11T04:58:31.419Z,11.24
2022-10-11T05:01:19.279Z,11.16
2022-10-11T05:04:07.157Z,11.00
2022-10-11T05:06:55.458Z,10.91
2022-10-11T05:09:44.694Z,10.66
2022-10-11T05:12:32.573Z,10.70
2022-10-11T05:15:20.463Z,10.65
2022-10-11T05:18:08.334Z,10.61
2022-10-11T05:21:01.607Z,10.56
2022-10-11T05:23:51.113Z,10.54
2022-10-11T05:26:40.412Z,10.43
2022-10-11T05:29:28.352Z,10.28
2022-10-11T05:32:16.276Z,10.27
2022-10-11T05:35:04.320Z,10.22
2022-10-11T05:37:52.236Z,10.18
2022-10-11T05:40:40.960Z,10.01
2022-10-11T05:43:30.555Z,9.93
2022-10-11T05:46:18.492Z,9.90
2022-10-11T05:49:06.394Z,9.93
2022-10-11T05:51:54.303Z,9.92
2022-10-11T05:54:42.174Z,10.00
2022-10-11T05:57:30.103Z,10.01
2022-10-11T06:00:19.594Z,10.08
2022-10-11T06:03:09.252Z,10.17
2022-10-11T06:05:57.472Z,10.22
2022-10-11T06:08:46.056Z,10.17
2022-10-11T06:11:34.804Z,10.11
2022-10-11T06:14:15.889Z,10.16
2022-10-11T06:16:44.839Z,10.29
2022-10-11T06:19:12.494Z,10.30
2022-10-11T06:21:40.143Z,10.29
2022-10-11T06:24:09.244Z,10.32
2022-10-11T06:26:36.881Z,10.40
2022-10-11T06:29:04.837Z,10.42
2022-10-11T06:31:32.820Z,10.46
2022-10-11T06:34:01.756Z,10.55
2022-10-11T06:36:29.821Z,10.55
2022-10-11T06:38:57.419Z,10.58
2022-10-11T06:41:27.559Z,10.49
2022-10-11T06:43:55.628Z,10.68
2022-10-11T06:46:25.720Z,10.82
2022-10-11T06:48:53.870Z,10.93
2022-10-11T06:51:23.856Z,11.02
2022-10-11T06:53:52.592Z,10.86
2022-10-11T06:56:20.560Z,11.14
2022-10-11T06:58:48.474Z,11.21
2022-10-11T07:01:18.965Z,11.15
2022-10-11T07:03:47.141Z,11.19
2022-10-11T07:06:17.871Z,11.09
2022-10-11T07:08:46.962Z,11.12
2022-10-11T07:11:17.022Z,11.17
2022-10-11T07:13:49.679Z,11.19
2022-10-11T07:16:17.933Z,11.14
2022-10-11T07:18:46.111Z,11.26
2022-10-11T07:21:16.842Z,11.32
2022-10-11T07:23:44.519Z,11.36
2022-10-11T07:26:13.742Z,11.32
2022-10-11T07:28:43.944Z,11.18
2022-10-11T07:31:15.506Z,10.84
2022-10-11T07:33:43.558Z,11.51
2022-10-11T07:36:12.740Z,11.53
2022-10-11T07:38:41.430Z,11.55
2022-10-11T07:41:10.261Z,11.55
2022-10-11T07:43:39.802Z,11.63
2022-10-11T07:46:08.527Z,11.62
2022-10-11T07:48:37.714Z,11.71
2022-10-11T07:51:07.271Z,11.60
2022-10-11T07:53:39.727Z,11.47
2022-10-11T07:56:08.735Z,11.54
2022-10-11T07:58:36.800Z,11.64
2022-10-11T08:01:06.305Z,11.78
2022-10-11T08:03:34.458Z,11.83
2022-10-11T08:06:03.269Z,11.87
2022-10-11T08:08:31.332Z,11.96
2022-10-11T08:10:59.351Z,12.07
2022-10-11T08:13:27.453Z,11.90
2022-10-11T08:15:55.190Z,12.10
2022-10-11T08:18:24.313Z,12.04
2022-10-11T08:20:52.212Z,12.10
2022-10-11T08:23:20.706Z,12.18
2022-10-11T08:25:48.775Z,12.39
2022-10-11T08:28:17.676Z,12.47
2022-10-11T08:30:49.877Z,12.64
2022-10-11T08:33:17.852Z,12.78
2022-10-11T08:35:47.341Z,12.86
2022-10-11T08:38:15.240Z,13.05
2022-10-11T08:40:47.637Z,13.05
2022-10-11T08:43:28.914Z,12.98
2022-10-11T08:46:00.957Z,13.13
2022-10-11T08:48:35.482Z,13.18
2022-10-11T08:51:09.973Z,13.40
2022-10-11T08:53:46.809Z,13.48
2022-10-11T08:56:15.953Z,13.37
2022-10-11T08:58:49.082Z,13.70
2022-10-11T09:01:20.885Z,13.74
2022-10-11T09:03:50.137Z,14.09
2022-10-11T09:06:43.696Z,14.27
2022-10-11T09:09:29.100Z,14.54
2022-10-11T09:12:11.478Z,14.61
2022-10-11T09:15:04.538Z,14.40
2022-10-11T09:17:45.849Z,14.48
2022-10-11T09:20:28.120Z,14.21
2022-10-11T09:23:02.416Z,14.29
2022-10-11T09:25:34.400Z,14.21
2022-10-11T09:28:13.189Z,14.15
2022-10-11T09:30:47.477Z,14.28
2022-10-11T09:33:20.724Z,14.08
2022-10-11T09:35:50.114Z,14.39
2022-10-11T09:38:38.250Z,14.35
2022-10-11T09:41:15.662Z,14.40
2022-10-11T09:43:48.424Z,14.30
2022-10-11T09:46:23.859Z,14.55
2022-10-11T09:48:54.430Z,14.62
2022-10-11T09:51:25.030Z,14.66
2022-10-11T09:53:59.373Z,14.52
2022-10-11T09:56:29.937Z,14.69
2022-10-11T09:59:25.967Z,14.91
2022-10-11T10:02:19.614Z,14.97
2022-10-11T10:05:00.952Z,15.14
2022-10-11T10:07:29.982Z,15.13
2022-10-11T10:09:59.695Z,15.24
2022-10-11T10:12:29.716Z,15.30
2022-10-11T10:15:06.033Z,15.51
2022-10-11T10:17:34.026Z,15.58
2022-10-11T10:20:05.309Z,15.77
2022-10-11T10:22:36.037Z,15.16
2022-10-11T10:25:09.239Z,15.51
2022-10-11T10:27:37.141Z,15.45
2022-10-11T10:30:22.933Z,15.41
2022-10-11T10:32:56.552Z,15.51
2022-10-11T10:35:38.323Z,15.84
2022-10-11T10:38:20.721Z,15.91
2022-10-11T10:40:53.971Z,15.55
2022-10-11T10:43:24.873Z,15.89
2022-10-11T10:46:22.814Z,16.22
2022-10-11T10:51:52.637Z,16.52
2022-10-11T10:54:32.989Z,16.65
2022-10-11T10:57:05.510Z,16.65
2022-10-11T10:59:45.513Z,16.43
2022-10-11T11:02:40.880Z,16.53
2022-10-11T11:05:18.737Z,16.69
2022-10-11T11:07:50.872Z,16.53
2022-10-11T11:10:22.651Z,16.65
2022-10-11T11:13:02.399Z,16.64
2022-10-11T11:15:38.286Z,16.64
2022-10-11T11:18:25.774Z,16.90
2022-10-11T11:21:10.092Z,16.74
2022-10-11T11:23:45.184Z,16.61
2022-10-11T11:26:23.470Z,16.60
2022-10-11T11:29:03.470Z,16.61
2022-10-11T11:31:55.919Z,16.94
2022-10-11T11:34:27.349Z,17.05
2022-10-11T11:36:59.041Z,17.15
2022-10-11T11:39:31.107Z,17.01
2022-10-11T11:42:05.074Z,17.06
2022-10-11T11:44:37.600Z,17.14
2022-10-11T11:47:11.998Z,16.79
2022-10-11T11:52:24.048Z,17.05
2022-10-11T11:55:03.814Z,17.23
2022-10-11T11:57:45.738Z,17.22
2022-10-11T12:00:18.817Z,17.33
2022-10-11T12:02:52.253Z,17.69
2022-10-11T12:05:22.269Z,18.00
2022-10-11T12:07:55.051Z,17.72
2022-10-11T12:10:34.173Z,17.67
2022-10-11T12:13:21.233Z,17.82
2022-10-11T12:16:10.792Z,17.84
2022-10-11T12:18:51.862Z,17.82
2022-10-11T12:21:25.790Z,17.88
2022-10-11T12:23:54.730Z,17.63
2022-10-11T12:26:44.243Z,17.85
2022-10-11T12:29:42.469Z,18.16
2022-10-11T12:32:50.958Z,18.22
2022-10-11T12:36:05.565Z,18.38
2022-10-11T12:38:39.896Z,18.22
2022-10-11T12:41:49.011Z,18.08
2022-10-11T12:44:23.403Z,18.39
2022-10-11T12:47:23.927Z,18.28
2022-10-11T12:50:03.589Z,18.72
2022-10-11T12:52:40.785Z,18.74
2022-10-11T12:55:34.161Z,18.74
2022-10-11T12:58:26.041Z,18.68
2022-10-11T13:01:22.786Z,18.49
2022-10-11T13:04:03.966Z,18.76
2022-10-11T13:06:34.793Z,18.47
2022-10-11T13:09:06.431Z,18.29
2022-10-11T13:11:40.078Z,18.28
2022-10-11T13:14:11.600Z,18.22
2022-10-11T13:16:56.664Z,17.74
2022-10-11T13:19:24.738Z,17.84
2022-10-11T13:22:17.212Z,17.78
2022-10-11T13:24:44.883Z,17.48
2022-10-11T13:27:19.644Z,17.59
2022-10-11T13:29:48.751Z,17.40
2022-10-11T13:32:20.581Z,17.39
2022-10-11T13:34:50.950Z,17.56
2022-10-11T13:37:22.200Z,17.86
2022-10-11T13:39:52.907Z,17.95
2022-10-11T13:42:26.421Z,17.57
2022-10-11T13:44:54.150Z,17.75
2022-10-11T13:47:26.906Z,17.87
2022-10-11T13:50:04.701Z,17.90
2022-10-11T13:52:33.383Z,17.90
2022-10-11T13:55:22.808Z,17.79
2022-10-11T13:57:52.749Z,17.65
2022-10-11T14:00:30.044Z,17.20
2022-10-11T14:03:01.596Z,17.36
2022-10-11T14:05:35.310Z,17.62
2022-10-11T14:08:06.258Z,17.49
2022-10-11T14:10:34.935Z,17.40
2022-10-11T14:13:23.697Z,17.67
2022-10-11T14:16:29.331Z,17.58
2022-10-11T14:19:10.303Z,17.51
2022-10-11T14:21:51.159Z,17.48
2022-10-11T14:24:19.565Z,17.41
2022-10-11T14:26:49.929Z,17.24
2022-10-11T14:29:24.665Z,17.05
2022-10-11T14:31:56.233Z,16.95
2022-10-11T14:34:26.579Z,16.84
2022-10-11T14:36:54.595Z,16.62
2022-10-11T14:39:24.395Z,16.58
2022-10-11T14:41:53.047Z,16.63
2022-10-11T14:44:23.529Z,16.45
2022-10-11T14:46:54.551Z,16.53
2022-10-11T14:49:24.960Z,16.66
2022-10-11T14:51:54.762Z,16.62
2022-10-11T14:54:24.888Z,16.66
2022-10-11T14:56:54.633Z,16.78
2022-10-11T14:59:26.605Z,16.45
2022-10-11T15:01:54.694Z,16.50
2022-10-11T15:04:24.571Z,16.38
2022-10-11T15:06:53.500Z,16.51
2022-10-11T15:09:21.550Z,16.28
2022-10-11T15:11:50.061Z,16.17
2022-10-11T15:14:18.024Z,16.05
2022-10-11T15:16:47.149Z,16.04
2022-10-11T15:19:16.589Z,16.02
2022-10-11T15:21:45.100Z,15.88
2022-10-11T15:24:13.190Z,15.72
2022-10-11T15:26:41.175Z,15.79
2022-10-11T15:29:11.741Z,15.74
2022-10-11T15:31:39.426Z,15.50
2022-10-11T15:34:08.415Z,15.46
2022-10-11T15:36:36.050Z,15.43
2022-10-11T15:39:03.967Z,15.30
2022-10-11T15:41:31.574Z,15.23
2022-10-11T15:43:59.163Z,15.29
2022-10-11T15:46:26.781Z,15.16
2022-10-11T15:48:54.528Z,15.15
2022-10-11T15:51:23.477Z,15.06
2022-10-11T15:53:51.041Z,14.98
2022-10-11T15:56:19.585Z,14.95
2022-10-11T15:58:47.652Z,14.91
2022-10-11T16:01:18.655Z,14.55
2022-10-11T16:03:47.380Z,14.70
2022-10-11T16:06:15.524Z,14.66
2022-10-11T16:08:44.789Z,14.60
2022-10-11T16:11:13.965Z,14.51
2022-10-11T16:13:41.982Z,14.38
2022-10-11T16:16:11.937Z,14.26
2022-10-11T16:18:39.723Z,13.95
2022-10-11T16:21:10.130Z,13.77
2022-10-11T16:23:38.247Z,14.02
2022-10-11T16:26:09.852Z,13.83
2022-10-11T16:28:38.673Z,13.77
2022-10-11T16:31:10.664Z,13.65
2022-10-11T16:33:45.415Z,13.55
2022-10-11T16:36:31.711Z,13.40
2022-10-11T16:39:00.097Z,13.28
2022-10-11T16:41:29.006Z,13.04
2022-10-11T16:43:57.142Z,12.94
2022-10-11T16:46:25.101Z,12.80
2022-10-11T16:48:55.277Z,12.68
2022-10-11T16:51:23.978Z,12.57
2022-10-11T16:53:52.134Z,12.49
2022-10-11T16:56:22.400Z,12.38
2022-10-11T16:58:52.297Z,12.26
2022-10-11T17:01:20.140Z,12.19
2022-10-11T17:03:49.431Z,12.02
2022-10-11T17:06:17.171Z,12.04
2022-10-11T17:08:44.782Z,11.98
2022-10-11T17:11:12.676Z,11.94
2022-10-11T17:13:40.322Z,11.89
2022-10-11T17:16:09.696Z,11.92
2022-10-11T17:18:37.704Z,11.84
2022-10-11T17:21:08.411Z,11.71
2022-10-11T17:23:36.853Z,11.73
2022-10-11T17:26:10.994Z,11.71
2022-10-11T17:28:39.282Z,11.70
2022-10-11T17:31:07.493Z,11.62
2022-10-11T17:33:36.827Z,11.61
2022-10-11T17:36:14.268Z,11.60
2022-10-11T17:38:42.002Z,11.60
2022-10-11T17:41:09.786Z,11.56
2022-10-11T17:43:38.366Z,11.55
2022-10-11T17:46:07.282Z,11.52
2022-10-11T17:48:39.120Z,11.54
2022-10-11T17:51:09.126Z,11.50
2022-10-11T17:53:38.017Z,11.52
2022-10-11T17:56:07.629Z,11.48
2022-10-11T17:58:35.773Z,11.29
2022-10-11T18:01:06.162Z,11.49
2022-10-11T18:03:34.244Z,11.39
2022-10-11T18:06:05.539Z,10.83
2022-10-11T18:08:39.769Z,11.40
2022-10-11T18:11:11.566Z,11.32
2022-10-11T18:13:42.364Z,11.27
2022-10-11T18:16:11.134Z,11.21
2022-10-11T18:18:39.610Z,11.17
2022-10-11T18:21:08.745Z,11.01
2022-10-11T18:23:38.231Z,11.01
2022-10-11T18:26:10.855Z,11.06
2022-10-11T18:28:38.626Z,11.03
2022-10-11T18:31:12.627Z,10.94
2022-10-11T18:33:41.938Z,11.01
2022-10-11T18:36:13.488Z,10.91
2022-10-11T18:38:46.142Z,10.84
2022-10-11T18:41:16.446Z,10.86
2022-10-11T18:43:48.752Z,10.84
2022-10-11T18:46:16.563Z,10.71
2022-10-11T18:48:46.296Z,10.60
2022-10-11T18:51:18.289Z,10.76
2022-10-11T18:53:46.695Z,10.71
2022-10-11T18:56:16.152Z,10.85
2022-10-11T18:58:45.029Z,11.07
2022-10-11T19:01:16.386Z,11.06
2022-10-11T19:03:44.657Z,11.11
2022-10-11T19:06:17.718Z,11.09
2022-10-11T19:08:45.651Z,11.09
2022-10-11T19:11:13.969Z,11.05
2022-10-11T19:13:41.605Z,10.96
2022-10-11T19:16:12.031Z,10.81
2022-10-11T19:18:44.033Z,10.78
2022-10-11T19:21:14.418Z,10.73
2022-10-11T19:23:45.079Z,10.63
2022-10-11T19:26:14.794Z,10.53
2022-10-11T19:28:43.240Z,10.43
2022-10-11T19:31:14.291Z,10.50
2022-10-11T19:33:41.883Z,10.51
2022-10-11T19:36:12.765Z,10.49
2022-10-11T19:38:40.945Z,10.53
2022-10-11T19:41:09.970Z,10.58
2022-10-11T19:43:37.645Z,10.60
2022-10-11T19:46:07.081Z,10.62
2022-10-11T19:48:37.595Z,10.67
2022-10-11T19:51:07.975Z,10.69
2022-10-11T19:53:36.330Z,10.58
2022-10-11T19:56:05.284Z,10.56
2022-10-11T19:58:34.373Z,10.50
2022-10-11T20:01:03.836Z,10.49
2022-10-11T20:03:53.845Z,10.50
2022-10-11T20:06:42.754Z,10.46
2022-10-11T20:09:31.190Z,10.52
2022-10-11T20:12:19.289Z,10.51
2022-10-11T20:15:09.431Z,10.52
2022-10-11T20:17:57.651Z,10.36
2022-10-11T20:20:52.796Z,10.25
2022-10-11T20:26:35.435Z,9.52
2022-10-11T20:29:25.149Z,9.90
2022-10-11T20:32:14.367Z,9.84
2022-10-11T20:35:03.284Z,9.77
2022-10-11T20:37:53.501Z,9.68
2022-10-11T20:40:41.514Z,9.87
2022-10-11T20:43:29.386Z,9.94
2022-10-11T20:46:18.992Z,10.00
2022-10-11T20:49:09.698Z,10.00
2022-10-11T20:51:57.623Z,10.04
2022-10-11T20:54:45.609Z,10.07
2022-10-11T20:57:33.730Z,10.09
2022-10-11T21:00:22.991Z,9.94
2022-10-11T21:03:11.347Z,9.88
2022-10-11T21:06:00.989Z,9.83
2022-10-11T21:08:48.963Z,9.81
2022-10-11T21:11:36.869Z,9.83
2022-10-11T21:14:24.801Z,9.80
2022-10-11T21:17:12.705Z,9.82
2022-10-11T21:20:03.478Z,9.72
2022-10-11T21:22:52.785Z,9.78
2022-10-11T21:25:41.255Z,9.77
2022-10-11T21:28:29.563Z,9.82
2022-10-11T21:31:19.704Z,9.83
2022-10-11T21:34:07.753Z,9.94
2022-10-11T21:36:55.692Z,10.03
2022-10-11T21:39:45.075Z,10.18
2022-10-11T21:42:33.026Z,10.31
2022-10-11T21:45:20.921Z,10.50
2022-10-11T21:48:08.954Z,10.64
2022-10-11T21:50:56.903Z,10.67
2022-10-11T21:53:44.828Z,10.78
2022-10-11T21:56:34.093Z,10.80
2022-10-11T21:59:21.985Z,10.86
2022-10-11T22:02:09.983Z,10.87
2022-10-11T22:04:57.901Z,10.96
2022-10-11T22:07:46.383Z,11.03
2022-10-11T22:10:35.037Z,11.05
2022-10-11T22:13:24.772Z,11.10
2022-10-11T22:16:14.447Z,11.16
2022-10-11T22:19:02.399Z,11.21
2022-10-11T22:21:50.377Z,11.10
2022-10-11T22:24:38.275Z,11.10
2022-10-11T22:27:26.265Z,10.97
2022-10-11T22:30:15.518Z,10.89
2022-10-11T22:33:03.643Z,10.68
2022-10-11T22:35:54.711Z,10.58
2022-10-11T22:38:43.732Z,10.43
2022-10-11T22:41:31.596Z,10.37
2022-10-11T22:44:19.479Z,10.23
2022-10-11T22:47:08.723Z,10.08
2022-10-11T22:49:56.621Z,9.89
2022-10-11T22:52:44.508Z,9.82
2022-10-11T22:55:32.511Z,9.94
2022-10-11T22:58:20.431Z,10.07
2022-10-11T23:01:09.290Z,10.08
2022-10-11T23:03:58.771Z,10.10
2022-10-11T23:06:46.739Z,10.14
2022-10-11T23:09:34.676Z,10.02
2022-10-11T23:12:22.592Z,9.98
2022-10-11T23:15:11.445Z,10.02
2022-10-11T23:17:59.343Z,9.95
2022-10-11T23:20:48.588Z,10.02
2022-10-11T23:23:36.968Z,9.96
2022-10-11T23:26:24.870Z,9.94
2022-10-11T23:29:12.745Z,9.92
2022-10-11T23:32:00.662Z,9.82
2022-10-11T23:34:48.520Z,9.72
2022-10-11T23:37:38.188Z,9.70
2022-10-11T23:40:26.384Z,9.66
2022-10-11T23:43:14.251Z,9.67
2022-10-11T23:46:02.169Z,9.66
2022-10-11T23:48:50.101Z,9.65
2022-10-11T23:51:38.260Z,9.62
2022-10-11T23:54:27.494Z,9.61
2022-10-11T23:57:15.410Z,9.70
